Time;durP1;ratioP1;P1;durP2;ratioP2;P2;SDS_P1;SDS_P2;PMS_P1;PMS_P2;Temp;Humidity;BMP_temperature;BMP_pressure;BME280_temperature;BME280_humidity;BME280_pressure;Samples;Min_cycle;Max_cycle;Signal;HPM_P1;HPM_P2
2023/07/01 00:01:49;;;;;;;9.60;3.87;;;;;;;24.48;62.66;99898.47;5086795;28;20226;-63
2023/07/01 00:04:14;;;;;;;7.03;3.40;;;;;;;24.49;62.59;99895.13;5078409;28;20256;-64
2023/07/01 00:06:43;;;;;;;6.47;3.70;;;;;;;24.50;62.65;99893.06;5078110;28;20249;-63
2023/07/01 00:09:12;;;;;;;5.40;2.97;;;;;;;24.49;62.68;99889.38;5088506;28;20649;-64
2023/07/01 00:11:37;;;;;;;7.73;4.17;;;;;;;24.49;62.65;99883.59;5091768;28;20416;-63
2023/07/01 00:14:03;;;;;;;7.47;3.30;;;;;;;24.49;62.83;99883.59;5086077;28;20459;-63
2023/07/01 00:16:28;;;;;;;4.20;2.90;;;;;;;24.49;62.47;99883.59;5092013;28;20263;-64
2023/07/01 00:18:54;;;;;;;5.67;3.00;;;;;;;24.49;62.57;99885.69;5092083;28;20186;-63
2023/07/01 00:21:19;;;;;;;7.03;3.67;;;;;;;24.48;62.39;99887.72;5076706;28;20190;-63
2023/07/01 00:23:45;;;;;;;5.67;3.23;;;;;;;24.49;62.77;99882.78;5072896;28;20718;-63
2023/07/01 00:26:10;;;;;;;5.03;2.93;;;;;;;24.48;62.57;99875.38;5091682;28;20166;-63
2023/07/01 00:28:36;;;;;;;5.70;3.17;;;;;;;24.47;62.64;99880.34;5090189;28;20181;-64
2023/07/01 00:31:01;;;;;;;7.33;3.50;;;;;;;24.48;62.46;99879.06;5087487;28;20186;-63
2023/07/01 00:33:26;;;;;;;6.73;3.43;;;;;;;24.48;62.32;99878.28;5072932;28;20174;-63
2023/07/01 00:35:52;;;;;;;8.83;3.43;;;;;;;24.47;62.39;99879.50;5086873;28;20197;-63
2023/07/01 00:38:17;;;;;;;5.87;3.20;;;;;;;24.46;62.28;99878.69;5091998;28;20189;-64
2023/07/01 00:40:43;;;;;;;5.87;3.20;;;;;;;24.46;62.39;99869.22;5087625;28;20700;-64
2023/07/01 00:43:08;;;;;;;7.40;3.00;;;;;;;24.46;62.25;99869.22;5091572;28;20193;-64
2023/07/01 00:45:33;;;;;;;6.53;3.50;;;;;;;24.45;62.35;99874.19;5091458;28;20550;-64
2023/07/01 00:47:59;;;;;;;7.80;3.23;;;;;;;24.43;62.51;99868.00;5091465;28;20661;-64
2023/07/01 00:50:24;;;;;;;6.77;3.50;;;;;;;24.43;62.72;99859.34;5049362;28;20187;-64
2023/07/01 00:52:50;;;;;;;5.43;3.30;;;;;;;24.43;62.14;99870.91;5054764;28;20183;-64
2023/07/01 00:55:15;;;;;;;9.53;3.50;;;;;;;24.43;62.34;99862.22;5080752;28;20206;-64
2023/07/01 00:57:40;;;;;;;6.50;3.23;;;;;;;24.43;62.05;99862.22;5087963;28;20187;-63
2023/07/01 01:00:37;;;;;;;4.67;2.83;;;;;;;24.42;61.98;99866.38;5091419;28;20186;-63
2023/07/01 01:03:22;;;;;;;5.30;3.40;;;;;;;24.41;61.93;99858.97;5078356;28;20298;-64
2023/07/01 01:06:05;;;;;;;4.50;2.93;;;;;;;24.42;62.07;99857.72;5064899;28;20511;-63
2023/07/01 01:08:36;;;;;;;10.10;3.97;;;;;;;24.40;62.09;99850.75;5092175;28;20409;-63
2023/07/01 01:11:01;;;;;;;4.70;2.83;;;;;;;24.39;62.15;99858.56;5087764;28;20457;-63
2023/07/01 01:13:27;;;;;;;7.00;3.20;;;;;;;24.39;62.08;99854.88;5073953;28;20404;-64
2023/07/01 01:15:53;;;;;;;6.33;3.43;;;;;;;24.39;62.22;99852.78;5056507;28;20190;-63
2023/07/01 01:18:18;;;;;;;5.37;3.40;;;;;;;24.38;62.00;99848.28;5075617;28;20202;-63
2023/07/01 01:20:44;;;;;;;5.90;3.67;;;;;;;24.38;61.96;99854.06;5070438;28;20175;-63
2023/07/01 01:23:22;;;;;;;7.53;3.07;;;;;;;24.38;62.05;99851.16;5055101;28;20240;-63
2023/07/01 01:25:51;;;;;;;6.00;2.93;;;;;;;24.38;61.94;99856.13;5051970;28;20312;-63
2023/07/01 01:28:17;;;;;;;5.97;3.50;;;;;;;24.37;61.49;99855.31;5052232;28;20479;-64
2023/07/01 01:30:42;;;;;;;9.43;3.20;;;;;;;24.37;61.77;99860.25;5069592;28;20444;-64
2023/07/01 01:33:07;;;;;;;5.50;3.40;;;;;;;24.36;61.61;99858.63;5071456;28;20193;-64
2023/07/01 01:35:33;;;;;;;8.30;3.27;;;;;;;24.36;61.79;99856.56;5080149;28;20229;-64
2023/07/01 01:38:07;;;;;;;11.03;3.30;;;;;;;24.34;61.62;99847.50;5071871;28;20248;-63
2023/07/01 01:40:42;;;;;;;6.57;3.20;;;;;;;24.35;61.56;99854.09;5052202;28;20186;-64
2023/07/01 01:43:16;;;;;;;5.47;2.90;;;;;;;24.33;61.78;99851.63;5071771;28;20444;-63
2023/07/01 01:45:42;;;;;;;4.57;3.10;;;;;;;24.33;61.36;99854.53;5086851;28;20416;-64
2023/07/01 01:48:07;;;;;;;6.17;3.00;;;;;;;24.33;61.54;99845.06;5069817;28;20493;-64
2023/07/01 01:50:33;;;;;;;5.13;2.70;;;;;;;24.32;61.52;99844.25;5090606;28;20420;-63
2023/07/01 01:52:58;;;;;;;6.03;3.13;;;;;;;24.33;61.43;99839.31;5073202;28;20182;-63
2023/07/01 01:55:24;;;;;;;6.67;2.70;;;;;;;24.32;61.36;99837.63;5052527;28;20640;-63
2023/07/01 01:57:49;;;;;;;6.37;3.70;;;;;;;24.31;61.53;99836.84;5048720;28;20186;-63
2023/07/01 02:00:15;;;;;;;4.27;3.13;;;;;;;24.32;61.36;99841.34;5087903;28;20187;-63
2023/07/01 02:02:40;;;;;;;5.83;3.53;;;;;;;24.31;61.46;99842.63;5073027;28;20561;-63
2023/07/01 02:05:06;;;;;;;5.97;3.23;;;;;;;24.29;61.53;99833.56;5082540;28;20167;-64
2023/07/01 02:07:31;;;;;;;9.17;2.97;;;;;;;24.30;61.36;99846.75;5081655;28;20202;-64
2023/07/01 02:09:57;;;;;;;5.00;2.97;;;;;;;24.29;61.33;99839.31;5083678;28;20239;-63
2023/07/01 02:12:22;;;;;;;7.90;2.90;;;;;;;24.29;61.38;99839.31;5088680;28;20167;-64
2023/07/01 02:14:48;;;;;;;5.40;2.90;;;;;;;24.29;61.33;99841.41;5054050;28;20260;-63
2023/07/01 02:17:13;;;;;;;6.50;3.20;;;;;;;24.29;61.24;99845.09;5069395;28;20221;-64
2023/07/01 02:19:39;;;;;;;6.20;3.07;;;;;;;24.29;61.39;99841.41;5072142;28;20198;-64
2023/07/01 02:22:04;;;;;;;5.40;3.03;;;;;;;24.27;61.12;99830.28;5034548;28;20175;-64
2023/07/01 02:24:30;;;;;;;8.43;3.53;;;;;;;24.27;61.28;99844.72;5069990;28;20809;-63
2023/07/01 02:26:55;;;;;;;3.73;2.70;;;;;;;24.27;60.95;99838.94;5087093;28;20806;-63
2023/07/01 02:29:21;;;;;;;7.13;3.23;;;;;;;24.27;61.13;99841.00;5088906;28;20170;-64
2023/07/01 02:31:46;;;;;;;4.60;2.83;;;;;;;24.27;61.00;99838.13;5076549;28;20187;-64
2023/07/01 02:34:12;;;;;;;7.50;3.40;;;;;;;24.26;61.06;99840.19;5068205;28;20183;-63
2023/07/01 02:36:40;;;;;;;6.73;3.20;;;;;;;24.26;61.04;99839.38;5073112;28;20202;-63
2023/07/01 02:39:06;;;;;;;5.30;3.57;;;;;;;24.25;61.08;99841.47;5072457;28;20258;-63
2023/07/01 02:41:31;;;;;;;4.97;3.00;;;;;;;24.24;61.01;99842.69;5090322;28;20588;-63
2023/07/01 02:43:57;;;;;;;4.80;3.20;;;;;;;24.25;61.01;99837.75;5077530;28;20213;-63
2023/07/01 02:46:22;;;;;;;6.27;3.23;;;;;;;24.25;61.06;99832.81;5074035;28;20167;-63
2023/07/01 02:48:47;;;;;;;6.03;3.30;;;;;;;24.23;61.02;99832.41;5088313;28;20174;-63
2023/07/01 02:51:13;;;;;;;7.27;3.10;;;;;;;24.23;61.00;99832.41;5070406;28;20232;-63
2023/07/01 02:53:38;;;;;;;10.07;3.60;;;;;;;24.23;60.96;99835.28;5070195;28;20252;-63
2023/07/01 02:56:04;;;;;;;7.33;3.60;;;;;;;24.23;60.95;99834.47;5087360;28;20673;-63
2023/07/01 02:58:29;;;;;;;5.33;2.67;;;;;;;24.21;60.94;99837.78;5083830;28;20585;-63
2023/07/01 03:00:54;;;;;;;6.90;3.17;;;;;;;24.21;60.80;99834.91;5070091;28;20256;-63
2023/07/01 03:03:20;;;;;;;6.43;3.50;;;;;;;24.21;61.05;99840.69;5081480;28;20650;-63
2023/07/01 03:05:45;;;;;;;6.37;3.03;;;;;;;24.21;60.79;99831.19;5070242;28;20163;-63
2023/07/01 03:08:11;;;;;;;8.60;3.93;;;;;;;24.20;60.96;99836.16;5069235;28;20195;-63
2023/07/01 03:10:36;;;;;;;4.20;3.27;;;;;;;24.20;60.96;99841.09;5069577;28;20171;-63
2023/07/01 03:13:02;;;;;;;6.43;3.50;;;;;;;24.19;60.71;99843.16;5070720;28;20194;-63
2023/07/01 03:15:27;;;;;;;5.30;3.00;;;;;;;24.19;61.03;99839.47;5068682;28;20257;-64
2023/07/01 03:17:53;;;;;;;6.20;3.27;;;;;;;24.19;60.88;99843.16;5071005;28;20197;-63
2023/07/01 03:20:24;;;;;;;5.97;3.33;;;;;;;24.18;60.77;99835.75;5050372;28;21088;-63
2023/07/01 03:22:54;;;;;;;5.27;3.10;;;;;;;24.18;60.63;99844.41;5050907;28;20782;-63
2023/07/01 03:25:19;;;;;;;4.53;3.03;;;;;;;24.18;60.67;99849.38;5052598;28;20823;-64
2023/07/01 03:27:44;;;;;;;4.10;2.50;;;;;;;24.17;60.92;99845.66;5068259;28;20559;-63
2023/07/01 03:30:13;;;;;;;7.73;3.33;;;;;;;24.17;60.79;99842.78;5060111;28;20284;-64
2023/07/01 03:32:42;;;;;;;6.97;3.17;;;;;;;24.17;60.78;99837.00;5070335;28;20174;-63
2023/07/01 03:35:09;;;;;;;4.70;2.80;;;;;;;24.17;60.80;99836.19;5082019;28;20468;-63
2023/07/01 03:37:38;;;;;;;5.47;2.80;;;;;;;24.17;60.50;99839.06;5067372;28;20947;-63
2023/07/01 03:40:13;;;;;;;7.30;3.53;;;;;;;24.16;60.64;99840.31;5083130;28;20511;-64
2023/07/01 03:42:42;;;;;;;6.43;3.00;;;;;;;24.16;60.72;99840.31;5065989;28;20451;-64
2023/07/01 03:45:08;;;;;;;4.13;2.70;;;;;;;24.16;60.68;99840.31;5088586;28;20495;-63
2023/07/01 03:47:37;;;;;;;4.37;2.60;;;;;;;24.14;60.62;99837.84;5087204;28;20444;-63
2023/07/01 03:50:03;;;;;;;4.83;3.37;;;;;;;24.14;60.83;99843.63;5089288;28;20439;-63
2023/07/01 03:52:28;;;;;;;4.53;2.70;;;;;;;24.13;60.53;99842.00;5086642;28;20459;-64
2023/07/01 03:54:54;;;;;;;4.57;2.90;;;;;;;24.14;60.63;99843.63;5083697;28;20570;-63
2023/07/01 03:57:19;;;;;;;8.03;2.83;;;;;;;24.13;60.30;99841.19;5088362;28;20649;-63
2023/07/01 03:59:45;;;;;;;6.50;2.90;;;;;;;24.14;60.36;99840.75;5080082;28;20182;-63
2023/07/01 04:02:10;;;;;;;6.03;3.23;;;;;;;24.13;60.55;99842.00;5088119;28;20242;-64
2023/07/01 04:04:36;;;;;;;4.97;2.73;;;;;;;24.13;60.33;99842.00;5065250;28;20224;-64
2023/07/01 04:07:02;;;;;;;8.83;3.37;;;;;;;24.12;60.56;99843.25;5087329;28;20210;-64
2023/07/01 04:09:29;;;;;;;5.47;3.30;;;;;;;24.13;60.31;99852.75;5064157;28;20454;-64
2023/07/01 04:11:54;;;;;;;5.40;3.20;;;;;;;24.12;60.27;99848.19;5064420;28;20413;-63
2023/07/01 04:14:19;;;;;;;5.10;3.20;;;;;;;24.12;60.13;99849.03;5080411;28;20443;-63
2023/07/01 04:16:45;;;;;;;5.73;3.13;;;;;;;24.12;60.31;99848.19;5085989;28;20209;-63
2023/07/01 04:19:11;;;;;;;5.20;3.03;;;;;;;24.11;60.24;99843.69;5084412;28;20182;-64
2023/07/01 04:21:36;;;;;;;7.20;3.70;;;;;;;24.10;60.43;99845.75;5069243;28;20212;-63
2023/07/01 04:24:04;;;;;;;4.83;3.10;;;;;;;24.10;60.40;99845.75;5065847;28;20232;-63
2023/07/01 04:26:30;;;;;;;5.57;3.40;;;;;;;24.10;60.51;99848.66;5069967;28;20625;-63
2023/07/01 04:28:55;;;;;;;6.73;3.80;;;;;;;24.10;60.15;99847.81;5082505;28;20433;-63
2023/07/01 04:31:21;;;;;;;7.63;3.43;;;;;;;24.09;59.99;99844.09;5085732;28;20523;-63
2023/07/01 04:33:46;;;;;;;6.97;3.20;;;;;;;24.09;60.13;99841.22;5086949;28;20204;-63
2023/07/01 04:36:12;;;;;;;6.27;3.10;;;;;;;24.10;60.28;99844.94;5086870;28;20202;-63
2023/07/01 04:38:37;;;;;;;12.60;2.90;;;;;;;24.09;59.86;99841.22;5061348;28;20213;-63
2023/07/01 04:41:03;;;;;;;6.83;3.20;;;;;;;24.09;60.13;99846.19;5085675;28;20239;-63
2023/07/01 04:43:29;;;;;;;6.03;3.20;;;;;;;24.09;60.09;99840.41;5087719;28;20175;-63
2023/07/01 04:45:54;;;;;;;10.13;3.37;;;;;;;24.10;59.97;99831.34;5088164;28;20309;-64
2023/07/01 04:48:20;;;;;;;10.43;3.60;;;;;;;24.09;60.23;99832.56;5065105;28;20262;-63
2023/07/01 04:50:45;;;;;;;4.20;2.80;;;;;;;24.10;59.83;99828.47;5067418;28;20183;-63
2023/07/01 04:53:10;;;;;;;6.23;2.87;;;;;;;24.10;59.97;99837.09;5070105;28;20179;-64
2023/07/01 04:55:36;;;;;;;10.20;3.53;;;;;;;24.10;59.91;99837.09;5065216;28;20206;-63
2023/07/01 04:58:01;;;;;;;9.77;3.63;;;;;;;24.10;60.00;99831.34;5091098;28;20248;-63
2023/07/01 05:00:27;;;;;;;7.67;3.77;;;;;;;24.11;59.77;99827.19;5088545;28;20188;-63
2023/07/01 05:02:52;;;;;;;5.40;3.17;;;;;;;24.10;59.94;99828.47;5073384;28;20241;-63
2023/07/01 05:05:18;;;;;;;4.40;3.00;;;;;;;24.10;60.14;99828.47;5052746;28;20590;-63
2023/07/01 05:07:43;;;;;;;6.37;2.93;;;;;;;24.10;60.16;99837.09;5072036;28;20331;-64
2023/07/01 05:10:09;;;;;;;6.83;3.10;;;;;;;24.09;60.46;99829.69;5070177;28;20191;-64
2023/07/01 05:12:34;;;;;;;6.27;3.13;;;;;;;24.09;60.25;99829.69;5072437;28;20224;-63
2023/07/01 05:15:00;;;;;;;8.40;3.40;;;;;;;24.07;60.14;99829.31;5069977;28;20207;-63
2023/07/01 05:17:25;;;;;;;8.57;3.20;;;;;;;24.10;60.08;99831.34;5070227;28;20178;-63
2023/07/01 05:19:51;;;;;;;6.70;2.87;;;;;;;24.10;60.13;99828.47;5071522;28;20190;-63
2023/07/01 05:22:16;;;;;;;8.07;3.47;;;;;;;24.10;59.90;99834.22;5069679;28;20182;-63
2023/07/01 05:24:41;;;;;;;8.17;3.27;;;;;;;24.11;59.77;99832.97;5068573;28;20171;-63
2023/07/01 05:27:07;;;;;;;6.63;3.00;;;;;;;24.12;60.05;99828.00;5068688;28;20223;-64
2023/07/01 05:29:32;;;;;;;4.60;2.97;;;;;;;24.12;60.02;99834.59;5073022;28;20182;-64
2023/07/01 05:31:58;;;;;;;4.10;2.60;;;;;;;24.12;59.94;99831.72;5089857;28;20186;-63
2023/07/01 05:34:23;;;;;;;5.83;3.23;;;;;;;24.12;60.35;99828.00;5086859;28;20193;-63
2023/07/01 05:36:49;;;;;;;5.77;3.00;;;;;;;24.11;60.04;99820.59;5090603;28;20634;-63
2023/07/01 05:39:15;;;;;;;6.03;3.07;;;;;;;24.10;60.00;99816.09;5072213;28;20554;-63
2023/07/01 05:41:41;;;;;;;3.40;2.43;;;;;;;24.09;60.15;99821.03;5073462;28;20428;-63
2023/07/01 05:44:06;;;;;;;3.87;2.70;;;;;;;24.10;60.06;99828.47;5090655;28;20525;-64
2023/07/01 05:46:32;;;;;;;5.50;2.90;;;;;;;24.10;59.87;99825.56;5063489;28;20196;-63
2023/07/01 05:48:57;;;;;;;4.90;2.93;;;;;;;24.11;60.08;99811.94;5062101;28;20178;-63
2023/07/01 05:51:22;;;;;;;4.70;3.30;;;;;;;24.10;60.08;99819.81;5089441;28;20170;-63
2023/07/01 05:53:48;;;;;;;5.20;3.07;;;;;;;24.12;60.20;99811.53;5073300;28;20566;-63
2023/07/01 05:56:17;;;;;;;5.20;2.87;;;;;;;24.12;60.16;99814.41;5088927;28;20701;-64
2023/07/01 05:58:43;;;;;;;5.33;3.17;;;;;;;24.11;59.96;99812.78;5061143;28;20183;-63
2023/07/01 06:01:08;;;;;;;5.07;3.23;;;;;;;24.12;60.17;99808.63;5085426;28;20952;-63
2023/07/01 06:03:33;;;;;;;4.90;2.77;;;;;;;24.13;60.12;99815.25;5089641;28;20276;-63
2023/07/01 06:05:59;;;;;;;5.17;3.27;;;;;;;24.13;59.87;99818.91;5088182;28;20170;-63
2023/07/01 06:08:24;;;;;;;5.77;3.47;;;;;;;24.17;59.92;99821.75;5074911;28;20776;-63
2023/07/01 06:10:50;;;;;;;4.73;2.47;;;;;;;24.17;59.84;99819.69;5070982;28;20815;-63
2023/07/01 06:13:15;;;;;;;6.90;3.37;;;;;;;24.17;59.95;99818.88;5073780;28;20187;-64
2023/07/01 06:15:41;;;;;;;6.40;3.00;;;;;;;24.14;60.17;99814.78;5073487;28;20677;-63
2023/07/01 06:18:06;;;;;;;8.33;3.20;;;;;;;24.14;59.95;99811.09;5054351;28;20190;-63
2023/07/01 06:20:31;;;;;;;5.57;3.03;;;;;;;24.13;59.73;99801.63;5076932;28;20190;-63
2023/07/01 06:22:57;;;;;;;5.60;3.17;;;;;;;24.13;59.93;99809.47;5085117;28;20189;-63
2023/07/01 06:25:22;;;;;;;5.57;2.80;;;;;;;24.12;59.59;99810.69;5078964;28;20175;-64
2023/07/01 06:27:48;;;;;;;4.40;3.17;;;;;;;24.10;59.46;99801.66;5081224;28;20205;-63
2023/07/01 06:30:13;;;;;;;8.03;3.50;;;;;;;24.09;59.44;99802.91;5077757;28;20186;-63
2023/07/01 06:32:39;;;;;;;5.73;3.13;;;;;;;24.08;59.31;99807.84;5055045;28;20866;-63
2023/07/01 06:35:04;;;;;;;7.60;3.33;;;;;;;24.09;59.33;99797.94;5069962;28;20199;-63
2023/07/01 06:37:30;;;;;;;5.50;3.37;;;;;;;24.08;59.29;99798.41;5078066;28;20200;-63
2023/07/01 06:39:55;;;;;;;4.57;2.93;;;;;;;24.06;59.27;99790.19;5072386;28;20178;-63
2023/07/01 06:42:21;;;;;;;6.87;3.63;;;;;;;24.06;59.26;99798.84;5078049;28;20182;-63
2023/07/01 06:44:46;;;;;;;7.00;3.90;;;;;;;24.05;59.37;99800.09;5078834;28;20198;-63
2023/07/01 06:47:12;;;;;;;7.40;4.10;;;;;;;24.05;58.95;99799.25;5076246;28;20179;-63
2023/07/01 06:49:37;;;;;;;10.40;5.80;;;;;;;24.01;59.09;99790.66;5066424;28;20217;-63
2023/07/01 06:52:03;;;;;;;11.50;4.80;;;;;;;24.03;58.90;99802.56;5075844;28;20185;-64
2023/07/01 06:54:28;;;;;;;9.97;5.13;;;;;;;24.04;59.24;99807.06;5078305;28;20175;-63
2023/07/01 06:56:54;;;;;;;10.20;6.23;;;;;;;24.04;58.92;99804.19;5082989;28;20202;-63
2023/07/01 06:59:20;;;;;;;11.80;5.90;;;;;;;24.03;58.22;99799.69;5076668;28;20221;-63
2023/07/01 07:01:45;;;;;;;10.83;5.60;;;;;;;24.04;58.48;99801.31;5075581;28;20576;-63
2023/07/01 07:04:10;;;;;;;12.27;6.30;;;;;;;24.04;58.87;99798.44;5079459;28;20430;-63
2023/07/01 07:06:36;;;;;;;12.53;7.63;;;;;;;24.04;57.92;99792.66;5077562;28;20190;-64
2023/07/01 07:09:03;;;;;;;9.50;6.87;;;;;;;24.04;58.11;99789.78;5075864;28;20190;-63
2023/07/01 07:11:29;;;;;;;14.23;8.37;;;;;;;24.04;58.21;99797.63;5076448;28;20171;-64
2023/07/01 07:13:54;;;;;;;12.67;7.03;;;;;;;24.03;57.96;99796.00;5082335;28;20764;-64
2023/07/01 07:16:19;;;;;;;13.63;7.37;;;;;;;24.01;57.86;99781.16;5084174;28;20207;-63
2023/07/01 07:18:45;;;;;;;12.77;7.80;;;;;;;24.01;57.95;99782.00;5079765;28;20174;-63
2023/07/01 07:21:10;;;;;;;16.07;7.37;;;;;;;24.01;57.23;99781.16;5068528;28;20162;-63
2023/07/01 07:23:36;;;;;;;12.23;6.90;;;;;;;24.00;57.16;99774.59;5072330;28;20422;-63
2023/07/01 07:26:01;;;;;;;14.43;8.27;;;;;;;23.98;57.25;99774.19;5064574;28;20193;-63
2023/07/01 07:28:27;;;;;;;21.43;9.30;;;;;;;23.98;56.98;99777.09;5085125;28;20530;-62
2023/07/01 07:30:52;;;;;;;47.37;9.50;;;;;;;24.13;58.83;99769.09;5078351;28;20657;-63
2023/07/01 07:33:18;;;;;;;16.37;9.60;;;;;;;24.18;59.88;99763.63;5085559;28;20171;-63
2023/07/01 07:35:43;;;;;;;26.03;8.30;;;;;;;24.30;58.97;99759.38;5082916;28;20194;-63
2023/07/01 07:38:09;;;;;;;20.23;10.03;;;;;;;24.35;59.28;99765.47;5067606;28;20545;-63
2023/07/01 07:40:34;;;;;;;14.60;9.40;;;;;;;24.40;58.96;99764.16;5084635;28;21181;-63
2023/07/01 07:43:07;;;;;;;17.63;8.57;;;;;;;24.44;58.73;99759.97;5087156;28;20204;-63
2023/07/01 07:45:33;;;;;;;18.60;9.47;;;;;;;24.43;57.39;99758.34;5063987;28;20177;-63
2023/07/01 07:47:58;;;;;;;18.80;8.07;;;;;;;24.36;57.01;99761.34;5067745;28;20428;-63
2023/07/01 07:50:24;;;;;;;13.60;6.93;;;;;;;24.31;56.71;99755.22;5048981;28;20178;-64
2023/07/01 07:52:50;;;;;;;14.33;7.17;;;;;;;24.27;56.58;99755.28;5081876;28;20185;-62
2023/07/01 07:55:15;;;;;;;17.43;7.57;;;;;;;24.31;56.35;99758.09;5066825;28;20900;-63
2023/07/01 07:57:40;;;;;;;14.33;7.13;;;;;;;24.31;56.34;99758.09;5074285;28;20179;-63
2023/07/01 08:00:06;;;;;;;17.70;7.30;;;;;;;24.31;56.29;99749.44;5071309;28;20189;-63
2023/07/01 08:02:32;;;;;;;14.40;6.63;;;;;;;24.39;56.31;99751.00;5075903;28;20219;-63
2023/07/01 08:04:57;;;;;;;11.93;6.70;;;;;;;24.36;56.67;99749.78;5080770;28;20928;-63
2023/07/01 08:07:23;;;;;;;12.53;6.90;;;;;;;24.37;56.45;99744.81;5076481;28;20296;-63
2023/07/01 08:09:49;;;;;;;15.30;6.77;;;;;;;24.39;56.51;99742.34;5085165;28;20623;-63
2023/07/01 08:12:15;;;;;;;12.77;6.60;;;;;;;24.38;56.94;99738.63;5085491;28;20432;-63
2023/07/01 08:14:40;;;;;;;12.63;6.70;;;;;;;24.40;56.70;99738.19;5069006;28;20289;-63
2023/07/01 08:17:06;;;;;;;10.43;6.27;;;;;;;24.41;56.87;99740.66;5070180;28;20194;-63
2023/07/01 08:19:33;;;;;;;12.53;6.50;;;;;;;24.39;56.93;99751.00;5069332;28;20195;-63
2023/07/01 08:21:59;;;;;;;11.47;6.07;;;;;;;24.44;56.32;99733.19;5067086;28;20241;-63
2023/07/01 08:24:25;;;;;;;11.37;5.93;;;;;;;24.66;56.69;99728.75;5076223;28;20428;-63
2023/07/01 08:26:50;;;;;;;11.10;6.77;;;;;;;24.78;56.69;99734.72;5066895;28;20485;-63
2023/07/01 08:29:16;;;;;;;13.37;5.93;;;;;;;24.69;56.51;99731.56;5070793;28;20478;-63
2023/07/01 08:31:41;;;;;;;14.83;6.33;;;;;;;24.59;56.49;99744.09;5073973;28;20214;-62
2023/07/01 08:34:07;;;;;;;9.97;5.63;;;;;;;24.55;56.96;99720.25;5057466;28;20809;-63
2023/07/01 08:36:33;;;;;;;13.27;5.87;;;;;;;24.55;57.37;99717.34;5077433;28;20380;-63
2023/07/01 08:38:58;;;;;;;10.53;4.63;;;;;;;24.53;57.31;99719.84;5070134;28;20235;-63
2023/07/01 08:41:24;;;;;;;11.07;4.70;;;;;;;24.54;56.86;99721.47;5075733;28;20190;-63
2023/07/01 08:43:53;;;;;;;8.20;5.00;;;;;;;24.52;56.63;99717.38;5052243;28;20191;-63
2023/07/01 08:46:19;;;;;;;9.60;4.73;;;;;;;24.52;56.54;99718.22;5069076;28;20425;-62
2023/07/01 08:48:45;;;;;;;8.87;4.60;;;;;;;24.52;57.16;99712.44;5073643;28;20461;-62
2023/07/01 08:51:27;;;;;;;12.50;4.23;;;;;;;24.57;56.24;99714.84;5072201;28;20183;-62
2023/07/01 08:53:52;;;;;;;7.83;4.13;;;;;;;24.54;56.58;99707.03;5069116;28;20444;-63
2023/07/01 08:56:21;;;;;;;9.63;4.37;;;;;;;24.53;56.82;99716.97;5069287;28;20526;-62
2023/07/01 08:58:47;;;;;;;9.57;3.70;;;;;;;24.54;56.45;99709.13;5069865;28;20191;-63
2023/07/01 09:01:13;;;;;;;15.60;5.50;;;;;;;24.51;55.77;99715.75;5059467;28;20452;-62
2023/07/01 09:03:38;;;;;;;12.70;4.50;;;;;;;24.40;54.79;99715.94;5080148;28;20194;-63
2023/07/01 09:06:05;;;;;;;16.60;4.77;;;;;;;24.31;53.83;99703.28;5078635;28;20167;-63
2023/07/01 09:08:32;;;;;;;10.13;4.47;;;;;;;24.24;52.82;99697.63;5054902;28;20179;-63
2023/07/01 09:10:58;;;;;;;15.67;4.87;;;;;;;24.22;52.74;99694.34;5069242;28;20429;-63
2023/07/01 09:13:24;;;;;;;8.70;4.80;;;;;;;24.24;52.96;99709.97;5069377;28;21364;-62
2023/07/01 09:15:50;;;;;;;9.83;4.80;;;;;;;24.21;52.43;99693.53;5071275;28;20203;-63
2023/07/01 09:18:34;;;;;;;14.30;3.93;;;;;;;24.19;53.09;99684.50;5073807;28;20433;-63
2023/07/01 09:21:00;;;;;;;12.93;4.07;;;;;;;24.16;51.47;99693.19;5066616;28;20183;-63
2023/07/01 09:23:29;;;;;;;8.77;4.27;;;;;;;24.14;50.85;99695.72;5084223;28;20451;-63
2023/07/01 09:26:07;;;;;;;9.70;3.73;;;;;;;24.11;50.77;99700.28;5076715;28;20677;-63
2023/07/01 09:28:33;;;;;;;11.63;3.87;;;;;;;24.09;51.33;99690.44;5083274;28;20481;-63
2023/07/01 09:31:03;;;;;;;8.50;4.07;;;;;;;24.08;50.96;99695.38;5078055;28;20441;-63
2023/07/01 09:33:29;;;;;;;11.87;4.23;;;;;;;24.08;50.18;99694.56;5070233;28;20469;-62
2023/07/01 09:36:01;;;;;;;8.40;3.33;;;;;;;24.07;50.30;99681.38;5078080;28;20908;-63
2023/07/01 09:38:26;;;;;;;9.07;3.63;;;;;;;24.08;50.14;99686.72;5086674;28;20525;-62
2023/07/01 09:40:52;;;;;;;9.07;3.40;;;;;;;24.08;50.25;99688.81;5082891;28;20550;-63
2023/07/01 09:43:19;;;;;;;13.27;3.87;;;;;;;24.08;50.23;99686.72;5077086;28;20193;-63
2023/07/01 09:45:57;;;;;;;9.67;3.93;;;;;;;24.07;50.88;99693.75;5084688;28;20177;-63
2023/07/01 09:48:22;;;;;;;7.50;3.20;;;;;;;24.05;50.15;99681.84;5083008;28;20549;-63
2023/07/01 09:50:51;;;;;;;7.97;3.23;;;;;;;24.07;49.69;99676.44;5051017;28;20532;-63
2023/07/01 09:53:20;;;;;;;8.63;4.00;;;;;;;24.07;50.06;99673.56;5073676;28;20190;-62
2023/07/01 09:55:46;;;;;;;5.33;3.20;;;;;;;24.06;49.93;99677.69;5069133;28;20465;-63
2023/07/01 09:58:12;;;;;;;7.30;3.07;;;;;;;24.03;49.69;99675.66;5061531;28;20425;-62
2023/07/01 10:00:38;;;;;;;5.60;2.90;;;;;;;24.01;49.91;99675.28;5057181;28;20512;-63
2023/07/01 10:03:03;;;;;;;6.67;3.40;;;;;;;24.05;49.75;99661.66;5072484;28;20226;-64
2023/07/01 10:05:29;;;;;;;15.07;3.70;;;;;;;24.09;49.36;99662.38;5049883;28;20181;-64
2023/07/01 10:07:54;;;;;;;10.20;4.10;;;;;;;24.15;49.34;99654.06;5034522;28;20210;-64
2023/07/01 10:10:21;;;;;;;7.63;3.10;;;;;;;24.19;48.95;99649.06;5068885;28;20193;-63
2023/07/01 10:12:47;;;;;;;9.40;3.00;;;;;;;24.21;48.39;99641.63;5074478;28;20187;-63
2023/07/01 10:15:13;;;;;;;11.70;3.33;;;;;;;24.23;48.53;99650.66;5047923;28;20527;-64
2023/07/01 10:17:48;;;;;;;8.90;3.13;;;;;;;24.26;48.65;99654.72;5069732;28;20186;-64
2023/07/01 10:20:32;;;;;;;7.80;3.40;;;;;;;24.27;48.65;99660.06;5077842;28;20432;-64
2023/07/01 10:22:59;;;;;;;5.87;2.70;;;;;;;24.20;47.60;99656.47;5070595;28;20677;-63
2023/07/01 10:25:37;;;;;;;7.53;3.77;;;;;;;24.19;49.13;99661.41;5073167;28;20416;-64
2023/07/01 10:28:09;;;;;;;13.17;3.53;;;;;;;24.25;49.22;99648.16;5076438;28;20464;-63
2023/07/01 10:30:41;;;;;;;14.37;4.27;;;;;;;24.30;49.79;99653.44;5078512;28;20437;-64
2023/07/01 10:33:33;;;;;;;11.50;4.30;;;;;;;24.35;51.10;99646.34;5076132;28;20519;-63
2023/07/01 10:36:08;;;;;;;10.57;3.97;;;;;;;24.38;51.04;99646.28;5085246;28;20629;-63
2023/07/01 10:38:35;;;;;;;5.20;2.87;;;;;;;24.40;50.85;99658.22;5074461;28;20437;-63
2023/07/01 10:41:00;;;;;;;9.00;3.40;;;;;;;24.43;50.98;99653.66;5067108;28;20432;-63
2023/07/01 10:43:26;;;;;;;9.40;2.83;;;;;;;24.37;51.39;99638.88;5074727;28;20444;-64
2023/07/01 10:46:16;;;;;;;10.70;3.87;;;;;;;24.35;51.17;99644.28;5073764;28;20951;-63
2023/07/01 10:48:42;;;;;;;8.20;3.20;;;;;;;24.36;51.61;99654.56;5071471;28;20446;-64
2023/07/01 10:51:08;;;;;;;6.77;3.67;;;;;;;24.42;51.84;99647.03;5084538;28;20435;-64
2023/07/01 10:54:04;;;;;;;7.43;2.80;;;;;;;24.35;52.37;99638.53;5082902;28;20440;-64
2023/07/01 10:56:33;;;;;;;10.17;3.00;;;;;;;24.37;52.46;99638.06;5064842;28;20309;-65
2023/07/01 10:59:17;;;;;;;11.23;3.37;;;;;;;24.40;52.66;99638.03;5078748;28;20421;-63
2023/07/01 11:02:01;;;;;;;8.60;3.13;;;;;;;24.35;51.82;99640.56;5078531;28;20609;-64
2023/07/01 11:04:51;;;;;;;8.43;3.27;;;;;;;24.25;51.45;99644.44;5068264;28;20531;-64
2023/07/01 11:07:27;;;;;;;9.60;3.00;;;;;;;24.17;50.79;99634.25;5070352;28;20443;-61
2023/07/01 11:09:55;;;;;;;4.87;2.77;;;;;;;24.15;50.41;99639.66;5065636;28;20415;-60
2023/07/01 11:12:21;;;;;;;7.67;2.83;;;;;;;24.11;50.76;99636.00;5079501;28;20491;-62
2023/07/01 11:14:46;;;;;;;6.13;3.23;;;;;;;24.14;50.77;99629.38;5070824;28;20543;-60
2023/07/01 11:17:19;;;;;;;5.83;2.80;;;;;;;24.15;50.41;99631.81;5074052;28;20612;-59
2023/07/01 11:19:45;;;;;;;6.63;3.37;;;;;;;24.15;50.26;99634.72;5067593;28;20209;-59
2023/07/01 11:22:12;;;;;;;8.93;2.83;;;;;;;24.19;50.20;99629.69;5070427;28;20437;-60
2023/07/01 11:24:37;;;;;;;9.17;2.93;;;;;;;24.19;49.93;99621.03;5067803;28;20269;-59
2023/07/01 11:27:05;;;;;;;9.17;2.40;;;;;;;24.19;50.35;99621.03;5073464;28;20437;-59
2023/07/01 11:29:30;;;;;;;11.33;2.93;;;;;;;24.21;50.10;99618.53;5068616;28;20228;-59
2023/07/01 11:32:00;;;;;;;6.77;2.90;;;;;;;24.24;50.06;99617.66;5079945;28;20965;-60